sensor_id;sensor_type;location;lat;lon;timestamp;pressure;altitude;pressure_sealevel;temperature;humidity
38852;BME280;24605;50.092;9.182;2022-08-24T00:00:06;98104.28;;;20.88;55.05
38852;BME280;24605;50.092;9.182;2022-08-24T00:02:34;98103.22;;;20.77;55.63
38852;BME280;24605;50.092;9.182;2022-08-24T00:05:00;98098.63;;;20.84;55.37
38852;BME280;24605;50.092;9.182;2022-08-24T00:07:27;98104.84;;;20.78;55.73
38852;BME280;24605;50.092;9.182;2022-08-24T00:09:54;98112.47;;;20.62;56.55
38852;BME280;24605;50.092;9.182;2022-08-24T00:12:21;98105.06;;;20.64;56.46
38852;BME280;24605;50.092;9.182;2022-08-24T00:14:50;98103.66;;;20.62;56.59
38852;BME280;24605;50.092;9.182;2022-08-24T00:17:16;98106.78;;;20.59;56.57
38852;BME280;24605;50.092;9.182;2022-08-24T00:19:44;98063.06;;;20.24;56.83
38852;BME280;24605;50.092;9.182;2022-08-24T00:22:11;98100.41;;;20.48;57.11
38852;BME280;24605;50.092;9.182;2022-08-24T00:24:38;98100.63;;;20.46;57.35
38852;BME280;24605;50.092;9.182;2022-08-24T00:27:06;98108.16;;;20.49;57.41
38852;BME280;24605;50.092;9.182;2022-08-24T00:29:34;98102.16;;;20.54;57.38
38852;BME280;24605;50.092;9.182;2022-08-24T00:32:02;98105.38;;;20.44;57.67
38852;BME280;24605;50.092;9.182;2022-08-24T00:34:29;98100.06;;;20.44;57.87
38852;BME280;24605;50.092;9.182;2022-08-24T00:36:56;98097.25;;;20.39;57.81
38852;BME280;24605;50.092;9.182;2022-08-24T00:39:23;98103.75;;;20.43;57.83
38852;BME280;24605;50.092;9.182;2022-08-24T00:41:50;98098.19;;;20.33;58.35
38852;BME280;24605;50.092;9.182;2022-08-24T00:44:18;98104.78;;;20.30;58.40
38852;BME280;24605;50.092;9.182;2022-08-24T00:46:49;98098.97;;;20.33;58.40
38852;BME280;24605;50.092;9.182;2022-08-24T00:49:22;98103.63;;;20.38;58.04
38852;BME280;24605;50.092;9.182;2022-08-24T00:51:56;98100.50;;;20.41;58.01
38852;BME280;24605;50.092;9.182;2022-08-24T00:54:26;98101.06;;;20.31;58.45
38852;BME280;24605;50.092;9.182;2022-08-24T00:56:59;98104.78;;;20.30;58.44
38852;BME280;24605;50.092;9.182;2022-08-24T00:59:30;98106.00;;;20.16;58.92
38852;BME280;24605;50.092;9.182;2022-08-24T01:01:57;98097.31;;;20.20;58.83
38852;BME280;24605;50.092;9.182;2022-08-24T01:04:31;98112.25;;;20.22;58.75
38852;BME280;24605;50.092;9.182;2022-08-24T01:07:00;98108.88;;;20.14;59.18
38852;BME280;24605;50.092;9.182;2022-08-24T01:09:27;98104.59;;;20.13;59.09
38852;BME280;24605;50.092;9.182;2022-08-24T01:11:54;98114.81;;;20.16;59.01
38852;BME280;24605;50.092;9.182;2022-08-24T01:14:20;98104.28;;;20.22;58.85
38852;BME280;24605;50.092;9.182;2022-08-24T01:16:48;98105.78;;;20.17;59.10
38852;BME280;24605;50.092;9.182;2022-08-24T01:19:35;98112.81;;;20.12;59.32
38852;BME280;24605;50.092;9.182;2022-08-24T01:22:24;98109.09;;;20.01;59.93
38852;BME280;24605;50.092;9.182;2022-08-24T01:24:56;98113.66;;;19.94;60.19
38852;BME280;24605;50.092;9.182;2022-08-24T01:27:23;98112.28;;;19.91;60.36
38852;BME280;24605;50.092;9.182;2022-08-24T01:29:50;98110.28;;;19.86;60.44
38852;BME280;24605;50.092;9.182;2022-08-24T01:32:18;98113.66;;;19.94;60.22
38852;BME280;24605;50.092;9.182;2022-08-24T01:34:45;98119.00;;;19.94;60.16
38852;BME280;24605;50.092;9.182;2022-08-24T01:37:11;98042.44;;;19.47;60.52
38852;BME280;24605;50.092;9.182;2022-08-24T01:39:39;98113.38;;;19.83;60.50
38852;BME280;24605;50.092;9.182;2022-08-24T01:42:08;98120.53;;;19.83;60.79
38852;BME280;24605;50.092;9.182;2022-08-24T01:44:36;98109.91;;;19.83;60.77
38852;BME280;24605;50.092;9.182;2022-08-24T01:47:05;98118.28;;;19.68;61.39
38852;BME280;24605;50.092;9.182;2022-08-24T01:49:33;98124.78;;;19.72;61.13
38852;BME280;24605;50.092;9.182;2022-08-24T01:52:02;98105.75;;;19.56;61.37
38852;BME280;24605;50.092;9.182;2022-08-24T01:54:31;98128.41;;;19.78;61.25
38852;BME280;24605;50.092;9.182;2022-08-24T01:56:58;98130.53;;;19.69;61.57
38852;BME280;24605;50.092;9.182;2022-08-24T01:59:26;98122.88;;;19.61;61.83
38852;BME280;24605;50.092;9.182;2022-08-24T02:01:56;98130.25;;;19.58;62.10
38852;BME280;24605;50.092;9.182;2022-08-24T02:04:24;98137.94;;;19.48;62.58
38852;BME280;24605;50.092;9.182;2022-08-24T02:06:51;98133.66;;;19.47;62.66
38852;BME280;24605;50.092;9.182;2022-08-24T02:09:18;98122.94;;;19.54;62.41
38852;BME280;24605;50.092;9.182;2022-08-24T02:11:46;98117.72;;;19.47;62.36
38852;BME280;24605;50.092;9.182;2022-08-24T02:14:13;98134.84;;;19.51;62.52
38852;BME280;24605;50.092;9.182;2022-08-24T02:16:41;98127.28;;;19.48;62.53
38852;BME280;24605;50.092;9.182;2022-08-24T02:19:08;98128.34;;;19.47;62.50
38852;BME280;24605;50.092;9.182;2022-08-24T02:21:34;98119.13;;;19.31;63.10
38852;BME280;24605;50.092;9.182;2022-08-24T02:24:01;98123.16;;;19.34;63.00
38852;BME280;24605;50.092;9.182;2022-08-24T02:26:28;98132.16;;;19.33;63.05
38852;BME280;24605;50.092;9.182;2022-08-24T02:28:54;98121.47;;;19.21;63.21
38852;BME280;24605;50.092;9.182;2022-08-24T02:31:21;98136.47;;;19.34;63.18
38852;BME280;24605;50.092;9.182;2022-08-24T02:33:49;98136.31;;;19.29;63.26
38852;BME280;24605;50.092;9.182;2022-08-24T02:36:15;98131.06;;;19.22;63.46
38852;BME280;24605;50.092;9.182;2022-08-24T02:38:42;98137.19;;;19.22;63.46
38852;BME280;24605;50.092;9.182;2022-08-24T02:41:09;98126.34;;;19.24;63.44
38852;BME280;24605;50.092;9.182;2022-08-24T02:43:36;98122.88;;;19.23;63.58
38852;BME280;24605;50.092;9.182;2022-08-24T02:46:03;98129.81;;;19.24;63.30
38852;BME280;24605;50.092;9.182;2022-08-24T02:48:30;98132.94;;;19.21;63.47
38852;BME280;24605;50.092;9.182;2022-08-24T02:50:58;98136.78;;;19.00;64.19
38852;BME280;24605;50.092;9.182;2022-08-24T02:53:25;98129.28;;;18.97;64.36
38852;BME280;24605;50.092;9.182;2022-08-24T02:55:51;98143.53;;;19.03;64.41
38852;BME280;24605;50.092;9.182;2022-08-24T02:58:18;98137.56;;;19.07;64.27
38852;BME280;24605;50.092;9.182;2022-08-24T03:00:46;98137.38;;;19.02;64.58
38852;BME280;24605;50.092;9.182;2022-08-24T03:03:13;98131.94;;;18.90;65.04
38852;BME280;24605;50.092;9.182;2022-08-24T03:05:39;98136.66;;;18.88;65.45
38852;BME280;24605;50.092;9.182;2022-08-24T03:08:07;98133.19;;;18.88;65.21
38852;BME280;24605;50.092;9.182;2022-08-24T03:10:34;98134.28;;;18.80;65.72
38852;BME280;24605;50.092;9.182;2022-08-24T03:13:00;98135.91;;;18.81;65.76
38852;BME280;24605;50.092;9.182;2022-08-24T03:15:28;98132.66;;;18.79;65.65
38852;BME280;24605;50.092;9.182;2022-08-24T03:17:55;98127.19;;;18.74;66.18
38852;BME280;24605;50.092;9.182;2022-08-24T03:20:22;98124.53;;;18.74;66.11
38852;BME280;24605;50.092;9.182;2022-08-24T03:22:49;98129.91;;;18.67;66.21
38852;BME280;24605;50.092;9.182;2022-08-24T03:25:18;98125.78;;;18.71;66.23
38852;BME280;24605;50.092;9.182;2022-08-24T03:27:45;98058.56;;;18.20;66.50
38852;BME280;24605;50.092;9.182;2022-08-24T03:30:13;98117.13;;;18.57;66.94
38852;BME280;24605;50.092;9.182;2022-08-24T03:32:41;98122.63;;;18.56;67.09
38852;BME280;24605;50.092;9.182;2022-08-24T03:35:08;98112.72;;;18.44;67.55
38852;BME280;24605;50.092;9.182;2022-08-24T03:37:36;98115.00;;;18.41;67.65
38852;BME280;24605;50.092;9.182;2022-08-24T03:40:03;98111.38;;;18.28;68.40
38852;BME280;24605;50.092;9.182;2022-08-24T03:42:31;98101.75;;;18.34;68.38
38852;BME280;24605;50.092;9.182;2022-08-24T03:44:57;98111.16;;;18.30;68.40
38852;BME280;24605;50.092;9.182;2022-08-24T03:47:24;98080.72;;;18.07;68.87
38852;BME280;24605;50.092;9.182;2022-08-24T03:49:50;98102.59;;;17.96;69.80
38852;BME280;24605;50.092;9.182;2022-08-24T03:52:17;98109.53;;;17.97;70.15
38852;BME280;24605;50.092;9.182;2022-08-24T03:54:44;98110.38;;;17.97;70.09
38852;BME280;24605;50.092;9.182;2022-08-24T03:57:11;98117.34;;;17.85;70.69
38852;BME280;24605;50.092;9.182;2022-08-24T03:59:39;98113.28;;;17.76;71.02
38852;BME280;24605;50.092;9.182;2022-08-24T04:02:06;98112.91;;;17.72;71.46
38852;BME280;24605;50.092;9.182;2022-08-24T04:04:34;98121.38;;;17.88;70.95
38852;BME280;24605;50.092;9.182;2022-08-24T04:07:00;98113.06;;;17.77;71.09
38852;BME280;24605;50.092;9.182;2022-08-24T04:09:26;98112.50;;;17.68;71.82
38852;BME280;24605;50.092;9.182;2022-08-24T04:11:53;98120.72;;;17.60;71.94
38852;BME280;24605;50.092;9.182;2022-08-24T04:14:19;98124.00;;;17.56;72.49
38852;BME280;24605;50.092;9.182;2022-08-24T04:16:47;98124.59;;;17.58;72.36
38852;BME280;24605;50.092;9.182;2022-08-24T04:19:14;98119.88;;;17.60;72.59
38852;BME280;24605;50.092;9.182;2022-08-24T04:21:41;98128.44;;;17.68;71.97
38852;BME280;24605;50.092;9.182;2022-08-24T04:24:09;98121.19;;;17.89;71.43
38852;BME280;24605;50.092;9.182;2022-08-24T04:26:37;98122.41;;;17.86;71.37
38852;BME280;24605;50.092;9.182;2022-08-24T04:29:05;98124.03;;;17.94;71.21
38852;BME280;24605;50.092;9.182;2022-08-24T04:31:34;98127.47;;;17.95;71.24
38852;BME280;24605;50.092;9.182;2022-08-24T04:34:02;98129.91;;;18.03;71.08
38852;BME280;24605;50.092;9.182;2022-08-24T04:36:28;98118.09;;;17.92;71.16
38852;BME280;24605;50.092;9.182;2022-08-24T04:38:57;98125.25;;;17.98;70.73
38852;BME280;24605;50.092;9.182;2022-08-24T04:41:24;98141.72;;;18.14;70.69
38852;BME280;24605;50.092;9.182;2022-08-24T04:43:50;98143.97;;;18.10;70.99
38852;BME280;24605;50.092;9.182;2022-08-24T04:46:18;98144.16;;;18.09;70.73
38852;BME280;24605;50.092;9.182;2022-08-24T04:48:47;98145.44;;;17.99;71.07
38852;BME280;24605;50.092;9.182;2022-08-24T04:51:18;98144.16;;;18.09;70.88
38852;BME280;24605;50.092;9.182;2022-08-24T04:53:45;98148.19;;;18.18;70.94
38852;BME280;24605;50.092;9.182;2022-08-24T04:56:14;98143.88;;;18.24;70.48
38852;BME280;24605;50.092;9.182;2022-08-24T04:58:41;98145.34;;;18.20;70.83
38852;BME280;24605;50.092;9.182;2022-08-24T05:01:08;98153.25;;;18.26;70.39
38852;BME280;24605;50.092;9.182;2022-08-24T05:03:35;98150.41;;;18.28;70.51
38852;BME280;24605;50.092;9.182;2022-08-24T05:06:02;98146.31;;;18.25;70.57
38852;BME280;24605;50.092;9.182;2022-08-24T05:08:30;98145.28;;;18.26;70.40
38852;BME280;24605;50.092;9.182;2022-08-24T05:10:57;98153.09;;;18.21;70.83
38852;BME280;24605;50.092;9.182;2022-08-24T05:13:24;98158.50;;;18.40;70.07
38852;BME280;24605;50.092;9.182;2022-08-24T05:15:50;98137.50;;;18.31;70.19
38852;BME280;24605;50.092;9.182;2022-08-24T05:18:17;98161.25;;;18.52;69.89
38852;BME280;24605;50.092;9.182;2022-08-24T05:20:45;98158.06;;;18.68;69.34
38852;BME280;24605;50.092;9.182;2022-08-24T05:23:12;98156.63;;;18.72;69.17
38852;BME280;24605;50.092;9.182;2022-08-24T05:25:40;98155.16;;;18.76;69.13
38852;BME280;24605;50.092;9.182;2022-08-24T05:28:07;98107.56;;;18.50;68.75
38852;BME280;24605;50.092;9.182;2022-08-24T05:30:34;98158.28;;;18.99;67.92
38852;BME280;24605;50.092;9.182;2022-08-24T05:33:01;98160.81;;;19.12;67.56
38852;BME280;24605;50.092;9.182;2022-08-24T05:35:27;98156.44;;;19.18;67.33
38852;BME280;24605;50.092;9.182;2022-08-24T05:37:54;98159.66;;;19.26;66.42
38852;BME280;24605;50.092;9.182;2022-08-24T05:40:21;98129.22;;;19.04;66.26
38852;BME280;24605;50.092;9.182;2022-08-24T05:42:49;98117.53;;;19.05;66.42
38852;BME280;24605;50.092;9.182;2022-08-24T05:45:15;98169.84;;;19.48;65.74
38852;BME280;24605;50.092;9.182;2022-08-24T05:47:42;98164.47;;;19.55;65.75
38852;BME280;24605;50.092;9.182;2022-08-24T05:50:08;98170.59;;;19.74;64.82
38852;BME280;24605;50.092;9.182;2022-08-24T05:52:35;98173.03;;;19.76;64.96
38852;BME280;24605;50.092;9.182;2022-08-24T05:55:03;98174.78;;;20.00;64.09
38852;BME280;24605;50.092;9.182;2022-08-24T05:57:32;98167.38;;;20.21;63.08
38852;BME280;24605;50.092;9.182;2022-08-24T06:00:00;98129.94;;;20.16;62.25
38852;BME280;24605;50.092;9.182;2022-08-24T06:02:27;98165.03;;;20.55;61.56
38852;BME280;24605;50.092;9.182;2022-08-24T06:04:54;98168.41;;;20.62;61.05
38852;BME280;24605;50.092;9.182;2022-08-24T06:07:20;98169.97;;;20.82;60.53
38852;BME280;24605;50.092;9.182;2022-08-24T06:09:47;98174.97;;;21.02;59.68
38852;BME280;24605;50.092;9.182;2022-08-24T06:12:13;98175.66;;;21.09;59.63
38852;BME280;24605;50.092;9.182;2022-08-24T06:14:44;98174.88;;;21.21;59.30
38852;BME280;24605;50.092;9.182;2022-08-24T06:17:13;98179.72;;;21.36;58.45
38852;BME280;24605;50.092;9.182;2022-08-24T06:19:39;98180.06;;;21.51;58.24
38852;BME280;24605;50.092;9.182;2022-08-24T06:22:08;98169.63;;;21.62;57.79
38852;BME280;24605;50.092;9.182;2022-08-24T06:24:36;98174.59;;;21.34;58.75
38852;BME280;24605;50.092;9.182;2022-08-24T06:27:21;98174.25;;;21.66;57.51
38852;BME280;24605;50.092;9.182;2022-08-24T06:29:48;98172.03;;;21.75;57.04
38852;BME280;24605;50.092;9.182;2022-08-24T06:32:17;98171.28;;;21.91;56.65
38852;BME280;24605;50.092;9.182;2022-08-24T06:34:43;98173.81;;;21.98;56.88
38852;BME280;24605;50.092;9.182;2022-08-24T06:37:10;98179.56;;;22.19;55.96
38852;BME280;24605;50.092;9.182;2022-08-24T06:39:36;98178.66;;;22.30;55.82
38852;BME280;24605;50.092;9.182;2022-08-24T06:42:03;98186.13;;;22.28;55.31
38852;BME280;24605;50.092;9.182;2022-08-24T06:44:30;98181.75;;;22.51;55.00
38852;BME280;24605;50.092;9.182;2022-08-24T06:46:57;98183.44;;;22.57;54.66
38852;BME280;24605;50.092;9.182;2022-08-24T06:49:25;98180.75;;;22.57;54.42
38852;BME280;24605;50.092;9.182;2022-08-24T06:51:52;98182.00;;;22.66;54.33
38852;BME280;24605;50.092;9.182;2022-08-24T06:54:18;98176.09;;;22.81;53.73
38852;BME280;24605;50.092;9.182;2022-08-24T06:56:45;98176.50;;;22.90;53.34
38852;BME280;24605;50.092;9.182;2022-08-24T06:59:12;98178.78;;;22.98;53.00
38852;BME280;24605;50.092;9.182;2022-08-24T07:01:39;98178.19;;;22.96;52.95
38852;BME280;24605;50.092;9.182;2022-08-24T07:04:05;98179.72;;;22.92;52.93
38852;BME280;24605;50.092;9.182;2022-08-24T07:06:34;98183.97;;;23.22;52.66
38852;BME280;24605;50.092;9.182;2022-08-24T07:09:01;98195.28;;;23.46;52.18
38852;BME280;24605;50.092;9.182;2022-08-24T07:11:28;98188.25;;;23.40;52.15
38852;BME280;24605;50.092;9.182;2022-08-24T07:13:54;98193.16;;;23.49;51.51
38852;BME280;24605;50.092;9.182;2022-08-24T07:16:21;98200.34;;;23.65;51.06
38852;BME280;24605;50.092;9.182;2022-08-24T07:18:47;98204.66;;;23.49;51.11
38852;BME280;24605;50.092;9.182;2022-08-24T07:21:15;98203.66;;;23.55;50.91
38852;BME280;24605;50.092;9.182;2022-08-24T07:23:44;98202.44;;;23.85;50.29
38852;BME280;24605;50.092;9.182;2022-08-24T07:26:13;98197.59;;;24.04;48.93
38852;BME280;24605;50.092;9.182;2022-08-24T07:28:40;98208.75;;;24.18;48.97
38852;BME280;24605;50.092;9.182;2022-08-24T07:31:07;98206.06;;;24.18;49.14
38852;BME280;24605;50.092;9.182;2022-08-24T07:33:34;98203.53;;;24.34;48.56
38852;BME280;24605;50.092;9.182;2022-08-24T07:36:01;98202.59;;;24.18;48.47
38852;BME280;24605;50.092;9.182;2022-08-24T07:38:28;98208.56;;;24.25;47.78
38852;BME280;24605;50.092;9.182;2022-08-24T07:40:56;98208.50;;;24.47;47.62
38852;BME280;24605;50.092;9.182;2022-08-24T07:43:24;98206.69;;;24.53;47.40
38852;BME280;24605;50.092;9.182;2022-08-24T07:45:50;98211.44;;;24.73;47.04
38852;BME280;24605;50.092;9.182;2022-08-24T07:48:17;98214.56;;;24.65;46.30
38852;BME280;24605;50.092;9.182;2022-08-24T07:50:44;98213.22;;;24.95;46.57
38852;BME280;24605;50.092;9.182;2022-08-24T07:53:11;98205.78;;;25.02;45.43
38852;BME280;24605;50.092;9.182;2022-08-24T07:55:37;98176.28;;;25.02;45.16
38852;BME280;24605;50.092;9.182;2022-08-24T07:58:06;98207.88;;;25.38;44.79
38852;BME280;24605;50.092;9.182;2022-08-24T08:00:32;98210.56;;;25.32;44.51
38852;BME280;24605;50.092;9.182;2022-08-24T08:02:59;98208.88;;;25.26;45.15
38852;BME280;24605;50.092;9.182;2022-08-24T08:05:26;98219.56;;;25.54;44.37
38852;BME280;24605;50.092;9.182;2022-08-24T08:07:52;98222.59;;;25.73;44.15
38852;BME280;24605;50.092;9.182;2022-08-24T08:10:19;98218.50;;;25.60;44.31
38852;BME280;24605;50.092;9.182;2022-08-24T08:12:47;98225.78;;;25.64;42.17
38852;BME280;24605;50.092;9.182;2022-08-24T08:15:15;98222.44;;;25.90;42.46
38852;BME280;24605;50.092;9.182;2022-08-24T08:17:42;98219.75;;;25.95;42.80
38852;BME280;24605;50.092;9.182;2022-08-24T08:20:09;98226.22;;;26.04;42.09
38852;BME280;24605;50.092;9.182;2022-08-24T08:22:35;98225.97;;;26.06;42.39
38852;BME280;24605;50.092;9.182;2022-08-24T08:25:20;98231.31;;;26.06;42.02
38852;BME280;24605;50.092;9.182;2022-08-24T08:27:46;98230.59;;;26.16;42.01
38852;BME280;24605;50.092;9.182;2022-08-24T08:30:14;98234.88;;;26.11;42.59
38852;BME280;24605;50.092;9.182;2022-08-24T08:32:41;98235.75;;;26.33;42.17
38852;BME280;24605;50.092;9.182;2022-08-24T08:35:08;98212.38;;;26.33;41.56
38852;BME280;24605;50.092;9.182;2022-08-24T08:37:35;98229.59;;;26.48;41.35
38852;BME280;24605;50.092;9.182;2022-08-24T08:40:03;98209.78;;;25.85;42.52
38852;BME280;24605;50.092;9.182;2022-08-24T08:42:54;98238.16;;;26.29;42.18
38852;BME280;24605;50.092;9.182;2022-08-24T08:45:33;98230.63;;;26.26;42.33
38852;BME280;24605;50.092;9.182;2022-08-24T08:48:31;98232.50;;;26.25;42.61
38852;BME280;24605;50.092;9.182;2022-08-24T08:51:49;98225.56;;;26.45;41.68
38852;BME280;24605;50.092;9.182;2022-08-24T08:54:43;98236.34;;;26.55;41.60
38852;BME280;24605;50.092;9.182;2022-08-24T08:57:25;98238.25;;;26.75;41.61
38852;BME280;24605;50.092;9.182;2022-08-24T09:00:06;98236.34;;;26.76;41.08
38852;BME280;24605;50.092;9.182;2022-08-24T09:03:12;98236.13;;;26.83;41.15
38852;BME280;24605;50.092;9.182;2022-08-24T09:06:11;98236.56;;;26.33;41.22
38852;BME280;24605;50.092;9.182;2022-08-24T09:08:52;98243.63;;;26.70;40.53
38852;BME280;24605;50.092;9.182;2022-08-24T09:11:32;98233.19;;;27.00;39.94
38852;BME280;24605;50.092;9.182;2022-08-24T09:14:17;98228.59;;;27.00;39.66
38852;BME280;24605;50.092;9.182;2022-08-24T09:17:00;98231.53;;;27.04;40.28
38852;BME280;24605;50.092;9.182;2022-08-24T09:19:45;98231.28;;;27.05;39.36
38852;BME280;24605;50.092;9.182;2022-08-24T09:22:16;98228.03;;;27.09;39.80
38852;BME280;24605;50.092;9.182;2022-08-24T09:25:01;98229.13;;;26.77;40.33
38852;BME280;24605;50.092;9.182;2022-08-24T09:27:39;98208.94;;;27.15;39.77
38852;BME280;24605;50.092;9.182;2022-08-24T09:30:11;98230.44;;;27.41;39.46
38852;BME280;24605;50.092;9.182;2022-08-24T09:32:59;98228.84;;;27.45;38.75
38852;BME280;24605;50.092;9.182;2022-08-24T09:35:52;98231.53;;;27.50;39.32
38852;BME280;24605;50.092;9.182;2022-08-24T09:38:43;98229.81;;;27.75;37.66
38852;BME280;24605;50.092;9.182;2022-08-24T09:41:34;98228.25;;;27.69;37.46
38852;BME280;24605;50.092;9.182;2022-08-24T09:44:29;98230.09;;;27.68;37.78
38852;BME280;24605;50.092;9.182;2022-08-24T09:47:30;98236.47;;;28.09;36.18
38852;BME280;24605;50.092;9.182;2022-08-24T09:50:14;98233.00;;;27.93;36.24
38852;BME280;24605;50.092;9.182;2022-08-24T09:53:07;98237.00;;;28.01;36.27
38852;BME280;24605;50.092;9.182;2022-08-24T09:58:52;98236.25;;;27.84;36.43
38852;BME280;24605;50.092;9.182;2022-08-24T10:01:29;98236.09;;;27.45;37.63
38852;BME280;24605;50.092;9.182;2022-08-24T10:04:13;98232.28;;;27.66;36.62
38852;BME280;24605;50.092;9.182;2022-08-24T10:06:51;98236.03;;;27.71;36.80
38852;BME280;24605;50.092;9.182;2022-08-24T10:09:37;98232.47;;;27.86;36.78
38852;BME280;24605;50.092;9.182;2022-08-24T10:12:12;98238.50;;;27.46;38.00
38852;BME280;24605;50.092;9.182;2022-08-24T10:14:49;98228.84;;;27.25;38.52
38852;BME280;24605;50.092;9.182;2022-08-24T10:17:22;98221.22;;;27.68;37.54
38852;BME280;24605;50.092;9.182;2022-08-24T10:20:08;98225.06;;;28.22;36.32
38852;BME280;24605;50.092;9.182;2022-08-24T10:22:57;98224.50;;;28.25;35.64
38852;BME280;24605;50.092;9.182;2022-08-24T10:25:30;98218.81;;;28.32;35.77
38852;BME280;24605;50.092;9.182;2022-08-24T10:28:07;98213.81;;;28.55;35.84
38852;BME280;24605;50.092;9.182;2022-08-24T10:30:55;98211.22;;;28.79;34.73
38852;BME280;24605;50.092;9.182;2022-08-24T10:33:25;98210.81;;;28.96;34.23
38852;BME280;24605;50.092;9.182;2022-08-24T10:36:18;98201.97;;;28.90;33.91
38852;BME280;24605;50.092;9.182;2022-08-24T10:38:48;98210.00;;;28.96;33.87
38852;BME280;24605;50.092;9.182;2022-08-24T10:45:19;98202.22;;;29.18;33.09
38852;BME280;24605;50.092;9.182;2022-08-24T10:50:37;98193.00;;;29.24;33.19
38852;BME280;24605;50.092;9.182;2022-08-24T10:53:26;98198.72;;;29.47;33.03
38852;BME280;24605;50.092;9.182;2022-08-24T10:56:05;98187.63;;;29.49;32.29
38852;BME280;24605;50.092;9.182;2022-08-24T10:58:49;98197.56;;;29.53;32.44
38852;BME280;24605;50.092;9.182;2022-08-24T11:01:22;98193.97;;;29.39;32.16
38852;BME280;24605;50.092;9.182;2022-08-24T11:04:07;98197.31;;;29.26;32.33
38852;BME280;24605;50.092;9.182;2022-08-24T11:06:37;98191.78;;;29.41;32.22
38852;BME280;24605;50.092;9.182;2022-08-24T11:09:08;98200.22;;;29.34;31.93
38852;BME280;24605;50.092;9.182;2022-08-24T11:11:36;98192.06;;;29.64;31.65
38852;BME280;24605;50.092;9.182;2022-08-24T11:14:07;98188.72;;;29.72;31.68
38852;BME280;24605;50.092;9.182;2022-08-24T11:16:36;98192.97;;;29.78;31.14
38852;BME280;24605;50.092;9.182;2022-08-24T11:19:07;98190.09;;;29.69;30.68
38852;BME280;24605;50.092;9.182;2022-08-24T11:21:42;98191.28;;;29.82;29.77
38852;BME280;24605;50.092;9.182;2022-08-24T11:24:26;98184.22;;;29.86;29.89
38852;BME280;24605;50.092;9.182;2022-08-24T11:26:56;98192.59;;;29.12;30.13
38852;BME280;24605;50.092;9.182;2022-08-24T11:29:28;98192.09;;;28.75;30.72
38852;BME280;24605;50.092;9.182;2022-08-24T11:31:56;98189.69;;;28.69;30.54
38852;BME280;24605;50.092;9.182;2022-08-24T11:34:33;98180.75;;;29.08;29.91
38852;BME280;24605;50.092;9.182;2022-08-24T11:37:00;98164.13;;;28.96;30.13
38852;BME280;24605;50.092;9.182;2022-08-24T11:39:31;98175.22;;;29.18;30.52
38852;BME280;24605;50.092;9.182;2022-08-24T11:42:02;98181.03;;;28.77;30.59
38852;BME280;24605;50.092;9.182;2022-08-24T11:44:41;98184.81;;;28.76;29.98
38852;BME280;24605;50.092;9.182;2022-08-24T11:47:28;98176.22;;;29.28;29.11
38852;BME280;24605;50.092;9.182;2022-08-24T11:50:03;98185.00;;;29.44;29.70
38852;BME280;24605;50.092;9.182;2022-08-24T11:52:42;98180.91;;;29.22;29.87
38852;BME280;24605;50.092;9.182;2022-08-24T11:55:15;98181.03;;;29.06;29.86
38852;BME280;24605;50.092;9.182;2022-08-24T11:57:46;98181.00;;;29.12;29.94
38852;BME280;24605;50.092;9.182;2022-08-24T12:00:20;98176.44;;;29.36;29.01
38852;BME280;24605;50.092;9.182;2022-08-24T12:02:54;98174.44;;;29.91;28.86
38852;BME280;24605;50.092;9.182;2022-08-24T12:05:31;98182.31;;;30.11;28.69
38852;BME280;24605;50.092;9.182;2022-08-24T12:08:09;98173.44;;;30.25;28.56
38852;BME280;24605;50.092;9.182;2022-08-24T12:10:48;98173.44;;;30.06;28.96
38852;BME280;24605;50.092;9.182;2022-08-24T12:13:34;98168.97;;;29.23;29.94
38852;BME280;24605;50.092;9.182;2022-08-24T12:16:11;98165.00;;;29.45;30.17
38852;BME280;24605;50.092;9.182;2022-08-24T12:18:50;98167.69;;;29.69;29.65
38852;BME280;24605;50.092;9.182;2022-08-24T12:21:23;98166.13;;;29.63;30.20
38852;BME280;24605;50.092;9.182;2022-08-24T12:23:52;98168.34;;;30.04;29.19
38852;BME280;24605;50.092;9.182;2022-08-24T12:26:25;98155.84;;;30.27;28.76
38852;BME280;24605;50.092;9.182;2022-08-24T12:28:55;98153.25;;;30.36;28.74
38852;BME280;24605;50.092;9.182;2022-08-24T12:31:35;98157.25;;;30.77;28.35
38852;BME280;24605;50.092;9.182;2022-08-24T12:34:07;98149.53;;;30.84;28.04
38852;BME280;24605;50.092;9.182;2022-08-24T12:36:42;98154.97;;;30.98;28.32
38852;BME280;24605;50.092;9.182;2022-08-24T12:39:13;98151.09;;;31.18;27.50
38852;BME280;24605;50.092;9.182;2022-08-24T12:41:48;98148.72;;;31.17;27.37
38852;BME280;24605;50.092;9.182;2022-08-24T12:44:22;98154.38;;;31.01;27.43
38852;BME280;24605;50.092;9.182;2022-08-24T12:46:53;98159.09;;;30.95;27.81
38852;BME280;24605;50.092;9.182;2022-08-24T12:49:24;98132.84;;;31.10;27.70
38852;BME280;24605;50.092;9.182;2022-08-24T12:52:09;98146.03;;;30.31;28.46
38852;BME280;24605;50.092;9.182;2022-08-24T12:54:49;98153.78;;;30.57;29.08
38852;BME280;24605;50.092;9.182;2022-08-24T12:57:34;98144.72;;;31.28;27.82
38852;BME280;24605;50.092;9.182;2022-08-24T13:00:08;98147.50;;;31.51;26.97
38852;BME280;24605;50.092;9.182;2022-08-24T13:02:40;98147.28;;;31.61;26.73
38852;BME280;24605;50.092;9.182;2022-08-24T13:05:12;98139.25;;;31.84;26.24
38852;BME280;24605;50.092;9.182;2022-08-24T13:07:42;98145.09;;;32.14;26.30
38852;BME280;24605;50.092;9.182;2022-08-24T13:10:13;98148.56;;;31.92;26.42
38852;BME280;24605;50.092;9.182;2022-08-24T13:13:13;98143.19;;;31.78;26.29
38852;BME280;24605;50.092;9.182;2022-08-24T13:15:58;98136.13;;;31.91;26.26
38852;BME280;24605;50.092;9.182;2022-08-24T13:18:49;98148.03;;;32.03;26.27
38852;BME280;24605;50.092;9.182;2022-08-24T13:21:42;98131.44;;;31.13;27.28
38852;BME280;24605;50.092;9.182;2022-08-24T13:24:40;98133.06;;;31.41;27.17
38852;BME280;24605;50.092;9.182;2022-08-24T13:30:23;98124.31;;;31.59;26.87
38852;BME280;24605;50.092;9.182;2022-08-24T13:32:57;98127.03;;;31.72;26.83
38852;BME280;24605;50.092;9.182;2022-08-24T13:35:38;98128.19;;;31.80;26.96